Wetterdaten: Woche 02.01.17 - 08.01.17 (KW1)
Datum Zeit Temp. Aussen Temp. o. S. +5cm Feuchte Auss BlattFeu 1 Luftdruck Regen Sonnenschein Regendauer Solar Windben Empfang
02.01.2017 00:00 0,6 C 0,6 C -0,6 C 95 % 15 lf 1018,5 hPa 0,2 l/m 0,00 h 0,00 h 0 W/m 17,1 km/h (3 Bft) 96,96 %
02.01.2017 01:00 0,4 C 0,5 C -0,9 C 95 % 15 lf 1018,5 hPa 0,0 l/m 0,00 h 0,07 h 0 W/m 13,5 km/h (3 Bft) 97,45 %
02.01.2017 02:00 0,3 C 0,1 C -1,1 C 96 % 15 lf 1018,7 hPa 0,0 l/m 0,00 h 0,90 h 0 W/m 12,3 km/h (3 Bft) 93,96 %
02.01.2017 03:00 0,1 C 0,0 C -1,1 C 96 % 15 lf 1019,0 hPa 0,0 l/m 0,00 h 1,00 h 0 W/m 12,7 km/h (3 Bft) 95,38 %
02.01.2017 04:00 0,1 C 0,0 C -1,1 C 97 % 15 lf 1019,3 hPa 0,0 l/m 0,00 h 0,90 h 0 W/m 9,0 km/h (2 Bft) 96,95 %
02.01.2017 05:00 0,1 C 0,0 C -1,1 C 97 % 15 lf 1019,4 hPa 0,0 l/m 0,00 h 0,80 h 0 W/m 10,5 km/h (2 Bft) 94,95 %
02.01.2017 06:00 0,2 C 0,4 C -1,1 C 97 % 15 lf 1019,6 hPa 0,0 l/m 0,00 h 0,57 h 0 W/m 10,9 km/h (2 Bft) 97,40 %
02.01.2017 07:00 0,3 C 0,5 C -1,1 C 97 % 15 lf 1019,8 hPa 0,0 l/m 0,00 h 0,00 h 0 W/m 11,1 km/h (2 Bft) 95,80 %
02.01.2017 08:00 0,3 C 0,6 C -1,1 C 97 % 15 lf 1020,3 hPa 0,0 l/m 0,00 h 0,00 h 5 W/m 11,5 km/h (2 Bft) 94,20 %
02.01.2017 09:00 0,5 C 0,9 C -0,9 C 98 % 15 lf 1021,2 hPa 0,2 l/m 0,00 h 0,00 h 26 W/m 11,6 km/h (2 Bft) 97,80 %
02.01.2017 10:00 0,7 C 2,0 C -0,1 C 98 % 15 lf 1021,5 hPa 0,4 l/m 0,73 h 0,00 h 127 W/m 11,5 km/h (2 Bft) 96,47 %
02.01.2017 11:00 1,1 C 2,9 C 0,7 C 98 % 15 lf 1021,7 hPa 0,8 l/m 0,77 h 0,00 h 166 W/m 14,7 km/h (3 Bft) 96,10 %
02.01.2017 12:00 1,4 C 5,2 C 0,4 C 98 % 15 lf 1021,8 hPa 0,4 l/m 0,73 h 0,00 h 223 W/m 13,5 km/h (3 Bft) 93,81 %
02.01.2017 13:00 2,5 C 7,7 C 1,3 C 98 % 15 lf 1021,9 hPa 0,4 l/m 0,98 h 0,00 h 242 W/m 12,4 km/h (3 Bft) 97,89 %
02.01.2017 14:00 3,4 C 8,0 C 1,7 C 98 % 12 lf 1022,2 hPa 0,4 l/m 1,00 h 0,00 h 207 W/m 10,4 km/h (2 Bft) 96,44 %
02.01.2017 15:00 3,4 C 4,4 C 1,8 C 96 % 0 lf 1022,6 hPa 0,2 l/m 1,00 h 0,00 h 102 W/m 10,5 km/h (2 Bft) 97,20 %
02.01.2017 16:00 3,0 C 3,1 C 1,0 C 94 % 0 lf 1022,8 hPa 0,0 l/m 0,43 h 0,00 h 30 W/m 12,4 km/h (3 Bft) 95,60 %
02.01.2017 17:00 2,0 C 1,7 C 0,0 C 94 % 0 lf 1023,1 hPa 0,0 l/m 0,00 h 0,00 h 0 W/m 15,5 km/h (3 Bft) 95,60 %
02.01.2017 18:00 1,3 C 1,0 C -0,6 C 95 % 1 lf 1023,4 hPa 0,0 l/m 0,00 h 0,00 h 0 W/m 14,2 km/h (3 Bft) 96,54 %
02.01.2017 19:00 0,9 C 0,9 C -0,7 C 95 % 1 lf 1024,0 hPa 0,0 l/m 0,00 h 0,00 h 0 W/m 11,1 km/h (2 Bft) 95,16 %
02.01.2017 20:00 0,7 C 0,7 C -0,8 C 96 % 1 lf 1024,3 hPa 0,0 l/m 0,00 h 0,00 h 0 W/m 10,6 km/h (2 Bft) 97,43 %
02.01.2017 21:00 0,6 C 0,5 C -1,1 C 96 % 1 lf 1024,6 hPa 0,0 l/m 0,00 h 0,00 h 0 W/m 11,1 km/h (2 Bft) 97,59 %
02.01.2017 22:00 0,5 C 0,6 C -1,1 C 97 % 1 lf 1024,6 hPa 0,0 l/m 0,00 h 0,00 h 0 W/m 13,2 km/h (3 Bft) 93,75 %
02.01.2017 23:00 0,5 C 0,5 C -1,2 C 97 % 2 lf 1024,7 hPa 0,0 l/m 0,00 h 0,00 h 0 W/m 13,3 km/h (3 Bft) 96,19 %
03.01.2017 00:00 0,2 C -0,4 C -2,1 C 97 % 5 lf 1024,8 hPa 0,0 l/m 0,00 h 0,00 h 0 W/m 7,8 km/h (2 Bft) 91,39 %
03.01.2017 01:00 0,3 C 0,2 C -1,4 C 97 % 12 lf 1024,7 hPa 0,0 l/m 0,00 h 0,00 h 0 W/m 15,0 km/h (3 Bft) 96,26 %
03.01.2017 02:00 0,5 C 0,4 C -1,1 C 97 % 14 lf 1024,8 hPa 0,0 l/m 0,00 h 0,00 h 0 W/m 14,5 km/h (3 Bft) 94,76 %
03.01.2017 03:00 0,5 C 0,6 C -1,1 C 97 % 13 lf 1025,0 hPa 0,0 l/m 0,00 h 0,00 h 0 W/m 18,5 km/h (3 Bft) 95,04 %
03.01.2017 04:00 0,5 C 0,6 C -1,1 C 98 % 13 lf 1024,8 hPa 0,0 l/m 0,00 h 0,00 h 0 W/m 18,5 km/h (3 Bft) 95,51 %
03.01.2017 05:00 0,7 C 1,0 C -0,6 C 98 % 10 lf 1024,6 hPa 0,0 l/m 0,00 h 0,00 h 0 W/m 18,5 km/h (3 Bft) 95,73 %
03.01.2017 06:00 1,2 C 1,6 C 0,0 C 98 % 1 lf 1024,5 hPa 0,0 l/m 0,00 h 0,03 h 0 W/m 19,6 km/h (3 Bft) 97,87 %
03.01.2017 07:00 1,3 C 1,3 C -0,4 C 98 % 1 lf 1024,3 hPa 0,0 l/m 0,00 h 0,00 h 0 W/m 17,8 km/h (3 Bft) 94,16 %
03.01.2017 08:00 1,0 C 1,1 C -0,6 C 98 % 1 lf 1024,3 hPa 0,0 l/m 0,07 h 0,03 h 11 W/m 20,3 km/h (4 Bft) 94,80 %
03.01.2017 09:00 0,8 C 1,3 C -0,4 C 98 % 0 lf 1024,6 hPa 0,2 l/m 0,97 h 0,00 h 70 W/m 20,1 km/h (4 Bft) 97,43 %
03.01.2017 10:00 1,1 C 2,2 C 0,3 C 98 % 0 lf 1024,9 hPa 0,0 l/m 0,20 h 0,00 h 80 W/m 23,2 km/h (4 Bft) 96,01 %
03.01.2017 11:00 1,4 C 3,0 C 1,0 C 97 % 0 lf 1024,5 hPa 0,0 l/m 0,40 h 0,00 h 131 W/m 25,7 km/h (4 Bft) 94,66 %
03.01.2017 12:00 1,8 C 2,7 C 1,2 C 95 % 0 lf 1023,9 hPa 0,0 l/m 0,07 h 0,00 h 92 W/m 29,2 km/h (5 Bft) 96,58 %
03.01.2017 13:00 1,7 C 2,5 C 1,2 C 94 % 0 lf 1023,1 hPa 0,0 l/m 0,00 h 0,00 h 76 W/m 27,3 km/h (4 Bft) 94,51 %
03.01.2017 14:00 1,9 C 2,9 C 1,6 C 93 % 0 lf 1022,5 hPa 0,0 l/m 0,07 h 0,00 h 70 W/m 25,2 km/h (4 Bft) 96,94 %
03.01.2017 15:00 2,0 C 2,7 C 1,1 C 91 % 0 lf 1021,9 hPa 0,0 l/m 0,00 h 0,00 h 24 W/m 21,7 km/h (4 Bft) 96,01 %
03.01.2017 16:00 2,1 C 2,8 C 1,1 C 90 % 0 lf 1021,2 hPa 0,0 l/m 0,00 h 0,03 h 10 W/m 27,4 km/h (4 Bft) 94,94 %
03.01.2017 17:00 2,4 C 2,8 C 1,3 C 91 % 0 lf 1020,8 hPa 0,0 l/m 0,00 h 0,00 h 0 W/m 32,8 km/h (5 Bft) 96,22 %
03.01.2017 18:00 2,7 C 2,9 C 1,7 C 91 % 0 lf 1020,4 hPa 0,0 l/m 0,00 h 0,00 h 0 W/m 29,6 km/h (5 Bft) 96,37 %
03.01.2017 19:00 2,7 C 3,2 C 1,7 C 92 % 0 lf 1019,9 hPa 0,0 l/m 0,00 h 0,00 h 0 W/m 34,2 km/h (5 Bft) 96,94 %
03.01.2017 20:00 2,8 C 3,3 C 1,7 C 92 % 0 lf 1019,5 hPa 0,0 l/m 0,00 h 0,00 h 0 W/m 33,8 km/h (5 Bft) 93,81 %
03.01.2017 21:00 3,0 C 3,3 C 1,9 C 93 % 0 lf 1018,6 hPa 0,0 l/m 0,00 h 0,00 h 0 W/m 35,0 km/h (5 Bft) 96,58 %
03.01.2017 22:00 3,3 C 3,9 C 2,2 C 93 % 0 lf 1018,0 hPa 0,0 l/m 0,00 h 0,00 h 0 W/m 36,1 km/h (5 Bft) 97,23 %
03.01.2017 23:00 3,3 C 3,4 C 1,9 C 93 % 0 lf 1017,3 hPa 0,0 l/m 0,00 h 0,00 h 0 W/m 35,8 km/h (5 Bft) 94,73 %
04.01.2017 00:00 3,0 C 3,1 C 1,7 C 94 % 1 lf 1016,7 hPa 0,0 l/m 0,00 h 0,00 h 0 W/m 33,1 km/h (5 Bft) 95,13 %
04.01.2017 01:00 2,9 C 2,8 C 1,7 C 96 % 14 lf 1015,9 hPa 0,0 l/m 0,00 h 0,00 h 0 W/m 35,6 km/h (5 Bft) 96,80 %
04.01.2017 02:00 2,9 C 3,0 C 1,7 C 96 % 15 lf 1015,3 hPa 0,2 l/m 0,00 h 0,13 h 0 W/m 31,0 km/h (5 Bft) 94,81 %
04.01.2017 03:00 3,4 C 3,4 C 2,1 C 97 % 15 lf 1014,6 hPa 0,0 l/m 0,00 h 0,77 h 0 W/m 34,2 km/h (5 Bft) 98,58 %
04.01.2017 04:00 3,7 C 3,9 C 2,2 C 98 % 15 lf 1013,9 hPa 0,8 l/m 0,00 h 1,00 h 0 W/m 35,6 km/h (5 Bft) 93,92 %
04.01.2017 05:00 3,7 C 3,9 C 2,2 C 98 % 15 lf 1013,3 hPa 0,8 l/m 0,00 h 1,00 h 0 W/m 31,1 km/h (5 Bft) 95,73 %
04.01.2017 06:00 3,8 C 3,9 C 2,7 C 98 % 15 lf 1012,8 hPa 0,4 l/m 0,00 h 0,83 h 0 W/m 29,9 km/h (5 Bft) 97,72 %
04.01.2017 07:00 4,2 C 4,4 C 2,9 C 98 % 15 lf 1012,7 hPa 0,8 l/m 0,00 h 0,67 h 0 W/m 23,0 km/h (4 Bft) 95,52 %
04.01.2017 08:00 4,8 C 5,0 C 3,3 C 98 % 15 lf 1012,8 hPa 0,0 l/m 0,00 h 0,03 h 5 W/m 21,2 km/h (4 Bft) 94,94 %
04.01.2017 09:00 4,8 C 5,0 C 3,3 C 98 % 15 lf 1013,3 hPa 0,0 l/m 0,00 h 0,00 h 31 W/m 21,6 km/h (4 Bft) 95,67 %
04.01.2017 10:00 4,7 C 5,3 C 3,2 C 98 % 15 lf 1013,7 hPa 0,0 l/m 0,20 h 0,20 h 68 W/m 19,6 km/h (3 Bft) 96,16 %
04.01.2017 11:00 4,7 C 5,7 C 2,9 C 95 % 9 lf 1013,9 hPa 0,0 l/m 0,23 h 0,33 h 111 W/m 28,0 km/h (4 Bft) 96,89 %
04.01.2017 12:00 5,2 C 6,7 C 4,0 C 88 % 0 lf 1013,9 hPa 0,0 l/m 0,17 h 0,00 h 100 W/m 27,4 km/h (4 Bft) 95,14 %
04.01.2017 13:00 4,0 C 4,7 C 1,7 C 88 % 13 lf 1014,1 hPa 1,2 l/m 0,27 h 0,47 h 77 W/m 32,2 km/h (5 Bft) 95,51 %
04.01.2017 14:00 3,7 C 8,1 C 2,1 C 93 % 15 lf 1013,9 hPa 0,0 l/m 0,87 h 0,00 h 130 W/m 25,1 km/h (4 Bft) 97,37 %
04.01.2017 15:00 4,8 C 5,4 C 2,3 C 86 % 7 lf 1014,1 hPa 0,0 l/m 0,10 h 0,03 h 40 W/m 30,3 km/h (5 Bft) 96,26 %
04.01.2017 16:00 4,6 C 4,5 C 2,0 C 84 % 1 lf 1014,6 hPa 0,0 l/m 0,00 h 0,03 h 10 W/m 28,3 km/h (4 Bft) 93,48 %
04.01.2017 17:00 4,1 C 4,2 C 1,7 C 87 % 4 lf 1015,1 hPa 0,0 l/m 0,00 h 0,27 h 0 W/m 31,7 km/h (5 Bft) 97,32 %
04.01.2017 18:00 3,7 C 3,5 C 1,5 C 90 % 15 lf 1016,2 hPa 0,2 l/m 0,00 h 0,77 h 0 W/m 21,8 km/h (4 Bft) 97,55 %
04.01.2017 19:00 3,1 C 3,0 C 1,0 C 92 % 15 lf 1016,9 hPa 0,0 l/m 0,00 h 0,17 h 0 W/m 23,3 km/h (4 Bft) 96,50 %
04.01.2017 20:00 2,8 C 2,4 C 0,2 C 92 % 7 lf 1017,6 hPa 0,0 l/m 0,00 h 0,00 h 0 W/m 17,8 km/h (3 Bft) 94,81 %
04.01.2017 21:00 2,0 C 1,7 C -0,4 C 92 % 0 lf 1018,5 hPa 0,0 l/m 0,00 h 0,00 h 0 W/m 14,3 km/h (3 Bft) 95,58 %
04.01.2017 22:00 1,9 C 1,5 C -0,5 C 93 % 1 lf 1019,3 hPa 0,0 l/m 0,00 h 0,00 h 0 W/m 13,5 km/h (3 Bft) 96,95 %
04.01.2017 23:00 1,6 C 1,0 C -1,4 C 94 % 2 lf 1020,3 hPa 0,0 l/m 0,00 h 0,00 h 0 W/m 12,6 km/h (3 Bft) 95,52 %
05.01.2017 00:00 0,9 C -0,2 C -2,7 C 94 % 5 lf 1021,0 hPa 0,0 l/m 0,00 h 0,00 h 0 W/m 5,9 km/h (2 Bft) 97,56 %
05.01.2017 01:00 0,2 C -0,6 C -2,2 C 94 % 13 lf 1021,1 hPa 0,0 l/m 0,00 h 0,00 h 0 W/m 9,4 km/h (2 Bft) 93,66 %
05.01.2017 02:00 0,4 C 0,0 C -2,0 C 95 % 13 lf 1021,7 hPa 0,0 l/m 0,00 h 0,00 h 0 W/m 11,0 km/h (2 Bft) 95,41 %
05.01.2017 03:00 0,3 C 0,1 C -2,1 C 95 % 4 lf 1022,3 hPa 0,0 l/m 0,00 h 0,00 h 0 W/m 11,3 km/h (2 Bft) 98,21 %
05.01.2017 04:00 0,6 C 0,9 C -1,1 C 95 % 0 lf 1023,1 hPa 0,0 l/m 0,00 h 0,00 h 0 W/m 13,4 km/h (3 Bft) 95,55 %
05.01.2017 05:00 1,1 C 0,9 C -0,9 C 95 % 0 lf 1023,8 hPa 0,0 l/m 0,00 h 0,03 h 0 W/m 15,4 km/h (3 Bft) 96,08 %
05.01.2017 06:00 0,6 C -0,2 C -1,9 C 94 % 2 lf 1024,7 hPa 0,0 l/m 0,00 h 0,00 h 0 W/m 11,1 km/h (2 Bft) 94,21 %
05.01.2017 07:00 0,0 C -0,9 C -2,4 C 94 % 3 lf 1025,7 hPa 0,0 l/m 0,00 h 0,00 h 0 W/m 7,3 km/h (2 Bft) 97,51 %
05.01.2017 08:00 -0,8 C -2,4 C -4,2 C 94 % 13 lf 1026,9 hPa 0,0 l/m 0,00 h 0,00 h 10 W/m 3,6 km/h (1 Bft) 95,76 %
05.01.2017 09:00 -1,6 C -1,7 C -3,8 C 94 % 15 lf 1028,0 hPa 0,0 l/m 0,80 h 0,00 h 54 W/m 4,2 km/h (1 Bft) 96,99 %
05.01.2017 10:00 -0,6 C 0,0 C -1,9 C 95 % 13 lf 1029,2 hPa 0,0 l/m 1,00 h 0,07 h 135 W/m 9,9 km/h (2 Bft) 95,73 %
05.01.2017 11:00 0,8 C 7,2 C -0,3 C 93 % 0 lf 1029,8 hPa 0,2 l/m 1,00 h 0,00 h 215 W/m 16,6 km/h (3 Bft) 95,30 %
05.01.2017 12:00 1,5 C 4,7 C 0,1 C 82 % 0 lf 1030,3 hPa 0,0 l/m 0,37 h 0,00 h 144 W/m 19,8 km/h (4 Bft) 95,59 %
05.01.2017 13:00 1,4 C 5,3 C 0,6 C 75 % 0 lf 1030,9 hPa 0,0 l/m 0,73 h 0,00 h 194 W/m 19,4 km/h (3 Bft) 96,08 %
05.01.2017 14:00 1,5 C 5,2 C 0,4 C 70 % 0 lf 1031,9 hPa 0,0 l/m 0,90 h 0,00 h 151 W/m 21,1 km/h (4 Bft) 96,23 %
05.01.2017 15:00 1,0 C 1,5 C -0,4 C 70 % 0 lf 1032,6 hPa 0,0 l/m 0,27 h 0,00 h 58 W/m 18,6 km/h (3 Bft) 96,37 %
05.01.2017 16:00 0,3 C -0,1 C -1,6 C 73 % 0 lf 1033,3 hPa 0,0 l/m 0,00 h 0,00 h 14 W/m 11,7 km/h (2 Bft) 94,02 %
05.01.2017 17:00 -0,7 C -1,3 C -2,8 C 76 % 0 lf 1034,2 hPa 0,0 l/m 0,00 h 0,00 h 4 W/m 12,1 km/h (2 Bft) 96,15 %
05.01.2017 18:00 -1,6 C -2,4 C -4,0 C 76 % 0 lf 1034,9 hPa 0,0 l/m 0,00 h 0,00 h 5 W/m 9,1 km/h (2 Bft) 96,08 %
05.01.2017 19:00 -2,4 C -3,8 C -5,8 C 79 % 0 lf 1035,8 hPa 0,0 l/m 0,00 h 0,00 h 4 W/m 5,2 km/h (1 Bft) 96,56 %
05.01.2017 20:00 -3,3 C -4,5 C -6,4 C 82 % 0 lf 1036,4 hPa 0,0 l/m 0,00 h 0,00 h 0 W/m 4,5 km/h (1 Bft) 94,90 %
05.01.2017 21:00 -4,1 C -5,1 C -6,9 C 84 % 0 lf 1037,0 hPa 0,0 l/m 0,00 h 0,00 h 5 W/m 4,1 km/h (1 Bft) 97,86 %
05.01.2017 22:00 -4,8 C -6,1 C -7,5 C 85 % 1 lf 1037,6 hPa 0,0 l/m 0,00 h 0,00 h 5 W/m 0,6 km/h (0 Bft) 94,04 %
05.01.2017 23:00 -5,5 C -6,1 C -7,8 C 87 % 1 lf 1038,3 hPa 0,0 l/m 0,00 h 0,00 h 4 W/m 3,7 km/h (1 Bft) 94,64 %
06.01.2017 00:00 -5,9 C -6,7 C -8,3 C 89 % 0 lf 1038,6 hPa 0,0 l/m 0,00 h 0,00 h 5 W/m 1,4 km/h (1 Bft) 96,70 %
06.01.2017 01:00 -6,3 C -7,7 C -8,6 C 89 % 0 lf 1038,6 hPa 0,0 l/m 0,00 h 0,00 h 5 W/m 0,0 km/h (0 Bft) 96,65 %
06.01.2017 02:00 -6,8 C -7,7 C -8,9 C 89 % 0 lf 1038,5 hPa 0,0 l/m 0,00 h 0,00 h 0 W/m 2,9 km/h (1 Bft) 96,80 %
06.01.2017 03:00 -7,1 C -7,9 C -9,0 C 90 % 0 lf 1039,0 hPa 0,0 l/m 0,00 h 0,00 h 5 W/m 0,8 km/h (0 Bft) 95,95 %
06.01.2017 04:00 -7,4 C -8,4 C -9,4 C 91 % 0 lf 1039,2 hPa 0,0 l/m 0,00 h 0,00 h 5 W/m 0,0 km/h (0 Bft) 96,78 %
06.01.2017 05:00 -7,7 C -8,7 C -9,4 C 91 % 0 lf 1039,3 hPa 0,0 l/m 0,00 h 0,00 h 5 W/m 0,3 km/h (0 Bft) 93,46 %
06.01.2017 06:00 -7,7 C -8,2 C -9,1 C 91 % 0 lf 1039,4 hPa 0,0 l/m 0,00 h 0,00 h 5 W/m 0,6 km/h (0 Bft) 96,57 %
06.01.2017 07:00 -7,3 C -6,9 C -8,4 C 92 % 0 lf 1039,5 hPa 0,0 l/m 0,00 h 0,00 h 5 W/m 5,9 km/h (2 Bft) 96,93 %
06.01.2017 08:00 -6,8 C -6,7 C -8,2 C 93 % 0 lf 1039,9 hPa 0,0 l/m 0,13 h 0,00 h 14 W/m 3,3 km/h (1 Bft) 96,79 %
06.01.2017 09:00 -6,4 C -5,8 C -7,1 C 93 % 0 lf 1040,4 hPa 0,0 l/m 0,53 h 0,00 h 52 W/m 5,5 km/h (1 Bft) 95,52 %
06.01.2017 10:00 -5,3 C -3,8 C -5,4 C 94 % 0 lf 1040,5 hPa 0,0 l/m 0,70 h 0,00 h 121 W/m 10,0 km/h (2 Bft) 94,59 %
06.01.2017 11:00 -3,8 C 1,0 C -4,5 C 93 % 0 lf 1039,8 hPa 0,0 l/m 1,00 h 0,00 h 217 W/m 13,2 km/h (3 Bft) 97,72 %
06.01.2017 12:00 -2,1 C 1,1 C -3,0 C 85 % 0 lf 1039,5 hPa 0,0 l/m 0,93 h 0,00 h 231 W/m 12,7 km/h (3 Bft) 97,72 %
06.01.2017 13:00 -1,3 C 2,7 C -2,4 C 80 % 0 lf 1039,2 hPa 0,0 l/m 0,93 h 0,00 h 220 W/m 10,1 km/h (2 Bft) 98,01 %
06.01.2017 14:00 -0,8 C 2,7 C -2,2 C 77 % 0 lf 1038,7 hPa 0,0 l/m 1,00 h 0,00 h 151 W/m 16,2 km/h (3 Bft) 96,37 %
06.01.2017 15:00 -1,4 C -0,9 C -3,0 C 78 % 0 lf 1038,4 hPa 0,0 l/m 0,43 h 0,00 h 63 W/m 14,0 km/h (3 Bft) 95,80 %
06.01.2017 16:00 -2,0 C -2,2 C -4,6 C 79 % 0 lf 1038,5 hPa 0,0 l/m 0,00 h 0,00 h 13 W/m 8,5 km/h (2 Bft) 96,23 %
06.01.2017 17:00 -2,9 C -3,1 C -6,0 C 81 % 0 lf 1038,3 hPa 0,0 l/m 0,00 h 0,00 h 0 W/m 7,3 km/h (2 Bft) 95,59 %
06.01.2017 18:00 -3,5 C -3,3 C -6,1 C 82 % 0 lf 1037,9 hPa 0,0 l/m 0,00 h 0,00 h 0 W/m 7,7 km/h (2 Bft) 95,09 %
06.01.2017 19:00 -3,9 C -3,8 C -6,1 C 83 % 0 lf 1037,7 hPa 0,0 l/m 0,00 h 0,00 h 0 W/m 7,5 km/h (2 Bft) 96,08 %
06.01.2017 20:00 -4,2 C -3,9 C -6,1 C 84 % 0 lf 1037,6 hPa 0,0 l/m 0,00 h 0,00 h 0 W/m 8,0 km/h (2 Bft) 96,09 %
06.01.2017 21:00 -4,3 C -4,2 C -6,2 C 85 % 0 lf 1037,4 hPa 0,0 l/m 0,00 h 0,00 h 0 W/m 8,3 km/h (2 Bft) 97,01 %
06.01.2017 22:00 -4,6 C -4,2 C -5,9 C 86 % 0 lf 1037,1 hPa 0,0 l/m 0,00 h 0,00 h 0 W/m 8,7 km/h (2 Bft) 92,88 %
06.01.2017 23:00 -4,4 C -3,9 C -5,5 C 86 % 0 lf 1036,6 hPa 0,0 l/m 0,00 h 0,00 h 0 W/m 11,7 km/h (2 Bft) 96,45 %
07.01.2017 00:00 -4,2 C -3,9 C -5,1 C 85 % 0 lf 1036,2 hPa 0,0 l/m 0,00 h 0,00 h 0 W/m 11,2 km/h (2 Bft) 97,40 %
07.01.2017 01:00 -4,4 C -4,3 C -5,9 C 85 % 0 lf 1035,7 hPa 0,0 l/m 0,00 h 0,00 h 0 W/m 8,4 km/h (2 Bft) 94,23 %
07.01.2017 02:00 -4,5 C -4,1 C -5,3 C 86 % 0 lf 1035,3 hPa 0,0 l/m 0,00 h 0,00 h 0 W/m 10,8 km/h (2 Bft) 96,20 %
07.01.2017 03:00 -4,2 C -3,6 C -4,7 C 84 % 0 lf 1034,9 hPa 0,0 l/m 0,00 h 0,00 h 0 W/m 12,3 km/h (3 Bft) 95,57 %
07.01.2017 04:00 -3,7 C -3,3 C -4,4 C 83 % 0 lf 1034,3 hPa 0,0 l/m 0,00 h 0,00 h 0 W/m 11,8 km/h (2 Bft) 94,78 %
07.01.2017 05:00 -3,5 C -3,0 C -4,1 C 83 % 0 lf 1033,9 hPa 0,0 l/m 0,00 h 0,00 h 0 W/m 10,8 km/h (2 Bft) 97,96 %
07.01.2017 06:00 -3,3 C -3,1 C -4,1 C 83 % 0 lf 1033,4 hPa 0,0 l/m 0,00 h 0,00 h 0 W/m 11,3 km/h (2 Bft) 96,29 %
07.01.2017 07:00 -3,4 C -3,0 C -4,1 C 84 % 0 lf 1032,9 hPa 0,0 l/m 0,00 h 0,00 h 0 W/m 13,5 km/h (3 Bft) 93,61 %
07.01.2017 08:00 -3,0 C -2,6 C -3,9 C 84 % 0 lf 1032,8 hPa 0,0 l/m 0,00 h 0,00 h 5 W/m 14,6 km/h (3 Bft) 97,22 %
07.01.2017 09:00 -2,7 C -2,6 C -3,9 C 89 % 0 lf 1032,5 hPa 0,0 l/m 0,00 h 0,00 h 14 W/m 19,9 km/h (4 Bft) 96,51 %
07.01.2017 10:00 -2,7 C -2,2 C -3,3 C 89 % 0 lf 1032,1 hPa 0,0 l/m 0,00 h 0,00 h 25 W/m 16,3 km/h (3 Bft) 96,51 %
07.01.2017 11:00 -2,4 C -2,2 C -3,0 C 92 % 1 lf 1031,4 hPa 0,0 l/m 0,00 h 0,00 h 40 W/m 18,3 km/h (3 Bft) 94,38 %
07.01.2017 12:00 -2,3 C -2,0 C -2,6 C 94 % 2 lf 1030,8 hPa 0,0 l/m 0,00 h 0,00 h 40 W/m 14,1 km/h (3 Bft) 97,30 %
07.01.2017 13:00 -2,0 C -1,5 C -2,3 C 95 % 2 lf 1030,1 hPa 0,0 l/m 0,00 h 0,03 h 31 W/m 10,3 km/h (2 Bft) 95,59 %
07.01.2017 14:00 -1,4 C -1,1 C -2,1 C 95 % 3 lf 1029,6 hPa 0,0 l/m 0,00 h 0,00 h 29 W/m 14,4 km/h (3 Bft) 97,13 %
07.01.2017 15:00 -1,2 C -0,9 C -1,7 C 96 % 5 lf 1029,5 hPa 0,0 l/m 0,00 h 0,03 h 20 W/m 9,2 km/h (2 Bft) 97,06 %
07.01.2017 16:00 -0,9 C -0,6 C -1,7 C 96 % 8 lf 1029,1 hPa 0,0 l/m 0,00 h 0,03 h 7 W/m 10,1 km/h (2 Bft) 92,53 %
07.01.2017 17:00 -0,6 C -0,6 C -1,7 C 97 % 12 lf 1029,0 hPa 0,0 l/m 0,00 h 0,03 h 0 W/m 13,3 km/h (3 Bft) 96,41 %
07.01.2017 18:00 -0,6 C -0,6 C -1,7 C 97 % 13 lf 1028,7 hPa 0,0 l/m 0,00 h 0,13 h 0 W/m 15,6 km/h (3 Bft) 97,12 %
07.01.2017 19:00 -0,5 C -0,2 C -1,7 C 97 % 14 lf 1028,6 hPa 0,0 l/m 0,00 h 0,00 h 0 W/m 15,3 km/h (3 Bft) 94,94 %
07.01.2017 20:00 -0,3 C 0,0 C -1,2 C 97 % 15 lf 1028,5 hPa 0,0 l/m 0,00 h 0,00 h 0 W/m 14,6 km/h (3 Bft) 95,43 %
07.01.2017 21:00 -0,1 C 0,0 C -1,1 C 97 % 15 lf 1028,5 hPa 0,0 l/m 0,00 h 0,43 h 0 W/m 11,9 km/h (2 Bft) 97,46 %
07.01.2017 22:00 0,1 C 0,0 C -1,1 C 97 % 15 lf 1028,5 hPa 0,2 l/m 0,00 h 0,50 h 0 W/m 10,9 km/h (2 Bft) 94,70 %
07.01.2017 23:00 0,2 C 0,3 C -1,1 C 98 % 15 lf 1028,4 hPa 0,2 l/m 0,00 h 0,00 h 0 W/m 12,8 km/h (3 Bft) 98,89 %
08.01.2017 00:00 0,4 C 0,6 C -1,1 C 98 % 15 lf 1028,3 hPa 0,2 l/m 0,00 h 0,43 h 0 W/m 11,2 km/h (2 Bft) 94,82 %
08.01.2017 01:00 0,5 C 0,8 C -0,6 C 98 % 15 lf 1028,4 hPa 0,8 l/m 0,00 h 0,67 h 0 W/m 10,1 km/h (2 Bft) 95,15 %
08.01.2017 02:00 0,6 C 1,1 C -0,6 C 98 % 15 lf 1028,3 hPa 0,8 l/m 0,00 h 0,73 h 0 W/m 11,3 km/h (2 Bft) 96,74 %
08.01.2017 03:00 0,8 C 1,1 C -0,6 C 98 % 15 lf 1028,2 hPa 0,2 l/m 0,00 h 0,17 h 0 W/m 10,3 km/h (2 Bft) 96,60 %
08.01.2017 04:00 1,0 C 1,1 C -0,2 C 98 % 15 lf 1028,3 hPa 0,4 l/m 0,00 h 0,65 h 0 W/m 10,4 km/h (2 Bft) 92,59 %
08.01.2017 05:00 1,1 C 1,5 C -0,3 C 98 % 15 lf 1028,4 hPa 0,2 l/m 0,00 h 0,67 h 0 W/m 6,2 km/h (2 Bft) 94,80 %
08.01.2017 06:00 1,3 C 1,7 C -0,1 C 98 % 15 lf 1028,5 hPa 0,2 l/m 0,00 h 0,50 h 0 W/m 5,9 km/h (2 Bft) 97,51 %
08.01.2017 07:00 1,3 C 1,7 C -0,2 C 99 % 15 lf 1028,6 hPa 0,0 l/m 0,00 h 0,10 h 0 W/m 5,5 km/h (1 Bft) 95,52 %
08.01.2017 08:00 1,4 C 1,9 C 0,0 C 99 % 15 lf 1029,1 hPa 0,0 l/m 0,00 h 0,00 h 6 W/m 6,0 km/h (2 Bft) 96,23 %
08.01.2017 09:00 1,8 C 2,4 C 0,7 C 99 % 15 lf 1029,8 hPa 0,0 l/m 0,00 h 0,00 h 20 W/m 6,7 km/h (2 Bft) 94,97 %
08.01.2017 10:00 2,2 C 3,0 C 1,2 C 99 % 15 lf 1030,2 hPa 0,0 l/m 0,00 h 0,00 h 45 W/m 5,4 km/h (1 Bft) 96,65 %
08.01.2017 11:00 2,7 C 3,9 C 2,0 C 99 % 15 lf 1030,4 hPa 0,0 l/m 0,00 h 0,00 h 76 W/m 6,7 km/h (2 Bft) 95,09 %
08.01.2017 12:00 3,5 C 4,9 C 2,9 C 99 % 15 lf 1030,3 hPa 0,0 l/m 0,00 h 0,00 h 105 W/m 6,0 km/h (2 Bft) 97,30 %
08.01.2017 13:00 4,0 C 5,4 C 3,2 C 99 % 15 lf 1030,3 hPa 0,0 l/m 0,00 h 0,00 h 84 W/m 3,4 km/h (1 Bft) 93,78 %
08.01.2017 14:00 4,1 C 5,0 C 3,0 C 99 % 14 lf 1030,3 hPa 0,0 l/m 0,00 h 0,00 h 61 W/m 3,4 km/h (1 Bft) 97,29 %
08.01.2017 15:00 4,0 C 4,6 C 2,6 C 99 % 13 lf 1030,3 hPa 0,0 l/m 0,00 h 0,00 h 38 W/m 4,3 km/h (1 Bft) 96,84 %
08.01.2017 16:00 3,6 C 3,7 C 2,0 C 99 % 12 lf 1030,5 hPa 0,0 l/m 0,00 h 0,00 h 11 W/m 5,7 km/h (1 Bft) 94,73 %
08.01.2017 17:00 3,1 C 3,3 C 1,7 C 99 % 14 lf 1030,6 hPa 0,0 l/m 0,00 h 0,00 h 0 W/m 6,4 km/h (2 Bft) 95,29 %
08.01.2017 18:00 2,8 C 2,9 C 1,5 C 99 % 15 lf 1030,9 hPa 0,0 l/m 0,00 h 0,00 h 0 W/m 6,0 km/h (2 Bft) 97,58 %
08.01.2017 19:00 2,5 C 2,8 C 1,1 C 99 % 15 lf 1030,7 hPa 0,0 l/m 0,00 h 0,00 h 0 W/m 6,0 km/h (2 Bft) 94,97 %
08.01.2017 20:00 2,3 C 2,8 C 1,1 C 99 % 15 lf 1030,5 hPa 0,0 l/m 0,00 h 0,00 h 0 W/m 6,7 km/h (2 Bft) 96,62 %
08.01.2017 21:00 2,3 C 2,7 C 1,1 C 99 % 15 lf 1030,6 hPa 0,0 l/m 0,00 h 0,00 h 0 W/m 7,0 km/h (2 Bft) 94,99 %
08.01.2017 22:00 2,2 C 2,3 C 0,9 C 99 % 15 lf 1030,7 hPa 0,0 l/m 0,00 h 0,00 h 0 W/m 5,5 km/h (1 Bft) 94,94 %
08.01.2017 23:00 2,1 C 2,2 C 0,8 C 99 % 15 lf 1030,3 hPa 0,0 l/m 0,00 h 0,00 h 0 W/m 6,4 km/h (2 Bft) 98,36 %
Min-Datum _ 06.01.17 06.01.17 06.01.17 05.01.17 02.01.17 04.01.17 - - - - 05.01.17 08.01.17
_ Min-Zeit 05:06 04:48 03:42 14:54 15:16 06:30 - - - - 08:14 04:05
Minimum _ -7,7 C -8,9 C -9,4 C 69 % 0 lf 1012,5 hPa - - - - 0,0 km/h (0 Bft) 4,76 %
Max-Datum _ 04.01.17 02.01.17 04.01.17 04.01.17 02.01.17 06.01.17 04.01.17 02.01.17 02.01.17 02.01.17 04.01.17 02.01.17
_ Max-Zeit 12:38 14:02 12:30 08:34 00:00 09:56 13:18 10:16 01:28 14:20 13:26 00:36
Maximum _ 5,4 C 12,2 C 4,4 C 99 % 15 lf 1040,6 hPa 1,2 l/m 0,03 h 0,03 h 453 W/m 66,9 km/h
NW (8 Bft)
100,00 %
Durchschnitt _ 0,1 C 0,6 C -1,3 C 92 % 7 lf 1027,0 hPa #11,0 l/m #19:59 h #16:15 h 66 W/m 14,2 km/h (3 Bft) 95,94 %
© 2017 W. Hausmann